Time;durP1;ratioP1;P1;durP2;ratioP2;P2;SDS_P1;SDS_P2;PMS_P1;PMS_P2;Temp;Humidity;BMP_temperature;BMP_pressure;BME280_temperature;BME280_humidity;BME280_pressure;Samples;Min_cycle;Max_cycle;Signal;HPM_P1;HPM_P2
2022/04/15 05:38:59;;;;;;;8.10;7.50;;;12.30;99.90;;;;;;2375973;26;20481;-80
2022/04/15 05:41:26;;;;;;;8.63;7.83;;;12.40;99.90;;;;;;5049500;28;20459;-81
2022/04/15 05:43:52;;;;;;;8.80;8.00;;;12.50;99.90;;;;;;5060810;28;20444;-81
2022/04/15 05:46:19;;;;;;;8.00;7.20;;;12.60;99.90;;;;;;5043426;28;20459;-81
2022/04/15 05:48:46;;;;;;;7.70;7.10;;;12.60;99.90;;;;;;5040932;28;20488;-81
2022/04/15 05:51:12;;;;;;;7.20;6.50;;;12.70;99.90;;;;;;5041827;28;20456;-81
2022/04/15 05:53:39;;;;;;;7.03;6.60;;;12.70;99.90;;;;;;5062020;28;20448;-81
2022/04/15 05:56:07;;;;;;;8.60;5.73;;;12.70;99.90;;;;;;5061809;28;20495;-81
2022/04/15 06:58:48;;;;;;;10.20;7.77;;;14.60;99.90;;;;;;5099402;22;20509;-81
2022/04/15 07:04:46;;;;;;;9.77;8.80;;;14.90;99.90;;;;;;4915426;29;21101;-82
2022/04/15 07:07:13;;;;;;;11.63;10.53;;;14.90;99.90;;;;;;5022755;28;20505;-81
2022/04/15 07:09:40;;;;;;;10.17;8.87;;;15.00;99.90;;;;;;5046215;28;20452;-81
2022/04/15 07:12:08;;;;;;;11.13;9.93;;;15.10;99.90;;;;;;5030492;28;20454;-80
2022/04/15 07:14:34;;;;;;;12.30;10.80;;;15.10;99.90;;;;;;5028142;28;20855;-81
2022/04/15 07:17:01;;;;;;;12.87;11.10;;;15.10;99.90;;;;;;5030242;28;20505;-81
2022/04/15 07:19:28;;;;;;;13.23;10.67;;;15.10;99.90;;;;;;5040840;28;20450;-82
2022/04/15 07:21:56;;;;;;;13.17;11.87;;;15.20;99.90;;;;;;5048774;28;20499;-80
2022/04/15 07:24:23;;;;;;;12.33;11.20;;;15.10;99.90;;;;;;5038224;28;20451;-82
2022/04/15 07:26:50;;;;;;;14.27;12.00;;;15.10;99.90;;;;;;5028208;28;20454;-81
2022/04/15 07:29:17;;;;;;;12.80;11.63;;;15.30;99.90;;;;;;5036062;28;20453;-80
2022/04/15 07:31:43;;;;;;;14.60;13.10;;;15.50;99.90;;;;;;5047558;28;20450;-81
2022/04/15 07:34:10;;;;;;;11.80;10.70;;;15.60;99.90;;;;;;5036731;28;20453;-83
2022/04/15 07:39:15;;;;;;;13.37;11.90;;;15.70;99.90;;;;;;1083566;26;20794;-82
2022/04/15 07:41:45;;;;;;;15.00;13.50;;;15.80;99.90;;;;;;5040215;28;20446;-82
2022/04/15 07:44:12;;;;;;;14.90;13.60;;;16.00;99.90;;;;;;5023857;28;20545;-82
2022/04/15 07:46:40;;;;;;;13.57;12.17;;;16.10;99.90;;;;;;5042655;28;20449;-82
2022/04/15 07:49:07;;;;;;;14.17;12.73;;;16.20;99.90;;;;;;5045669;28;20460;-83
2022/04/15 07:51:35;;;;;;;16.13;14.43;;;16.40;99.90;;;;;;5044804;28;20450;-80
2022/04/15 07:54:03;;;;;;;16.70;14.97;;;16.30;99.90;;;;;;5043894;28;20442;-82
2022/04/15 07:56:32;;;;;;;16.17;14.60;;;16.40;99.90;;;;;;5044097;28;20493;-81
2022/04/15 07:58:59;;;;;;;18.20;13.40;;;16.50;99.50;;;;;;5042935;28;20486;-82
2022/04/15 08:01:27;;;;;;;14.63;13.13;;;16.60;99.40;;;;;;5042850;28;20453;-81
2022/04/15 08:03:54;;;;;;;13.80;12.50;;;16.70;99.30;;;;;;5042802;28;20879;-81
2022/04/15 08:06:22;;;;;;;14.00;12.60;;;16.70;98.10;;;;;;5042641;28;20450;-82
2022/04/15 08:08:49;;;;;;;14.23;12.80;;;16.60;98.30;;;;;;5043395;28;20824;-82
2022/04/15 08:11:16;;;;;;;14.00;12.70;;;16.70;99.40;;;;;;5043371;28;20450;-81
2022/04/15 08:13:44;;;;;;;14.83;13.50;;;16.80;98.40;;;;;;5043788;28;20463;-82
2022/04/15 08:16:11;;;;;;;15.43;13.30;;;16.80;97.90;;;;;;5043710;28;20483;-81
2022/04/15 08:18:38;;;;;;;16.30;14.57;;;16.70;97.70;;;;;;5042946;28;20475;-82
2022/04/15 08:21:05;;;;;;;16.73;12.70;;;16.90;97.70;;;;;;5037250;28;20451;-78
2022/04/15 08:23:32;;;;;;;14.00;12.70;;;17.10;98.00;;;;;;5021985;28;20455;-77
2022/04/15 08:25:58;;;;;;;14.13;12.80;;;17.30;97.30;;;;;;5033500;28;20456;-83
2022/04/15 08:28:25;;;;;;;15.53;13.87;;;17.50;97.30;;;;;;5037252;28;20474;-82
2022/04/15 08:30:53;;;;;;;15.10;13.50;;;17.60;96.90;;;;;;5036188;28;20464;-82
2022/04/15 08:33:20;;;;;;;15.73;14.43;;;17.60;96.60;;;;;;5037729;28;20455;-82
2022/04/15 08:35:48;;;;;;;15.57;13.87;;;17.70;96.00;;;;;;5036898;28;20533;-80
2022/04/15 08:38:14;;;;;;;14.00;12.77;;;17.70;95.80;;;;;;5037359;28;20543;-83
2022/04/15 08:40:46;;;;;;;14.30;12.93;;;17.50;95.70;;;;;;5038946;28;20845;-83
2022/04/15 08:43:13;;;;;;;13.57;12.37;;;17.40;96.30;;;;;;5040177;28;20521;-84
2022/04/15 08:45:42;;;;;;;16.40;14.67;;;17.60;96.30;;;;;;5039719;28;20474;-83
2022/04/15 08:48:10;;;;;;;14.40;12.97;;;17.60;96.40;;;;;;5039646;28;20480;-81
2022/04/15 08:50:37;;;;;;;15.90;14.17;;;17.80;96.40;;;;;;5029523;28;20461;-81
2022/04/15 08:53:08;;;;;;;16.50;14.30;;;17.90;95.50;;;;;;5030444;28;20540;-84
2022/04/15 08:55:38;;;;;;;15.80;14.20;;;18.10;95.80;;;;;;5030300;28;20467;-83
2022/04/15 08:58:06;;;;;;;16.17;13.70;;;18.20;94.90;;;;;;5033492;28;20832;-83
2022/04/15 09:00:36;;;;;;;15.87;14.27;;;18.30;94.40;;;;;;5038962;28;20464;-83
2022/04/15 09:03:03;;;;;;;14.03;12.57;;;18.30;94.00;;;;;;5039174;28;20488;-82
2022/04/15 09:05:31;;;;;;;15.17;13.63;;;18.40;94.70;;;;;;5039783;28;20461;-82
2022/04/15 09:08:06;;;;;;;16.60;15.07;;;18.60;94.60;;;;;;5040025;28;20476;-82
2022/04/15 09:10:34;;;;;;;17.43;15.93;;;18.80;94.20;;;;;;5019049;28;20457;-82
2022/04/15 09:13:01;;;;;;;15.43;14.13;;;19.00;93.70;;;;;;5018672;28;20461;-82
2022/04/15 09:15:28;;;;;;;14.27;12.93;;;19.10;93.40;;;;;;5036167;28;20816;-82
2022/04/15 09:21:39;;;;;;;15.27;13.87;;;19.50;93.50;;;;;;5015650;28;20394;-86
2022/04/15 09:33:57;;;;;;;15.73;14.23;;;18.90;91.80;;;;;;5037508;28;20451;-85
2022/04/15 09:36:30;;;;;;;15.07;13.57;;;18.80;91.10;;;;;;5039661;28;20924;-85
2022/04/15 09:39:00;;;;;;;13.53;12.40;;;19.20;91.50;;;;;;5039819;28;20482;-85
2022/04/15 09:41:29;;;;;;;17.27;15.57;;;19.40;91.10;;;;;;5039740;28;20464;-81
2022/04/15 09:43:57;;;;;;;18.23;16.70;;;19.40;91.10;;;;;;5038872;28;20458;-83
2022/04/15 09:46:26;;;;;;;17.47;15.80;;;19.40;91.20;;;;;;5039535;28;20449;-82
2022/04/15 09:49:03;;;;;;;16.80;15.13;;;19.30;91.50;;;;;;5039009;28;20475;-82
2022/04/15 09:51:37;;;;;;;15.97;14.47;;;19.30;91.10;;;;;;5038003;28;20456;-82
2022/04/15 09:54:05;;;;;;;16.93;15.23;;;19.40;90.80;;;;;;5039713;28;20452;-85
2022/04/15 09:56:34;;;;;;;16.87;15.37;;;19.40;90.10;;;;;;5039808;28;20476;-84
2022/04/15 09:59:08;;;;;;;17.20;15.60;;;19.30;90.70;;;;;;5040915;28;20451;-83
2022/04/15 10:01:36;;;;;;;16.23;14.63;;;19.30;90.40;;;;;;5036817;28;20454;-83
2022/04/15 10:04:05;;;;;;;17.27;15.73;;;19.50;90.10;;;;;;5042061;28;20449;-83
2022/04/15 10:06:34;;;;;;;14.73;13.33;;;19.80;90.50;;;;;;5044458;28;20855;-84
2022/04/15 10:09:03;;;;;;;16.40;14.70;;;19.90;89.00;;;;;;5041378;28;20451;-82
2022/04/15 10:11:32;;;;;;;11.97;10.87;;;19.90;88.10;;;;;;5040015;28;20476;-83
2022/04/15 10:13:59;;;;;;;12.10;11.10;;;19.80;87.30;;;;;;5040522;28;20478;-82
2022/04/15 10:16:27;;;;;;;13.83;12.73;;;19.50;87.50;;;;;;5041015;28;20492;-83
2022/04/15 10:18:54;;;;;;;14.17;12.80;;;19.30;87.20;;;;;;5040165;28;20502;-83
2022/04/15 10:21:21;;;;;;;14.13;12.87;;;19.40;86.50;;;;;;5042772;28;20458;-81
2022/04/15 10:23:49;;;;;;;11.57;10.53;;;19.30;87.20;;;;;;5043051;28;20464;-84
2022/04/15 10:26:18;;;;;;;11.67;10.57;;;19.20;84.40;;;;;;5041846;28;20976;-84
2022/04/15 10:28:48;;;;;;;10.90;10.00;;;19.30;86.20;;;;;;5041740;28;20543;-83
2022/04/15 10:31:16;;;;;;;12.53;11.43;;;19.40;85.60;;;;;;5039888;28;20511;-84
2022/04/15 10:33:44;;;;;;;12.20;11.20;;;19.60;86.70;;;;;;5039895;28;20479;-82
2022/04/15 10:36:13;;;;;;;12.67;11.37;;;19.80;85.60;;;;;;5033855;28;20515;-84
2022/04/15 10:39:11;;;;;;;13.10;12.00;;;20.10;84.40;;;;;;5038554;28;20477;-84
2022/04/15 10:48:09;;;;;;;10.30;9.40;;;20.20;84.90;;;;;;4914377;29;20453;-86
2022/04/15 11:01:18;;;;;;;9.30;8.50;;;20.00;80.60;;;;;;5027435;28;20523;-87
2022/04/15 11:03:53;;;;;;;11.23;10.33;;;20.10;82.40;;;;;;5005231;28;20522;-84
2022/04/15 11:06:26;;;;;;;9.70;8.70;;;19.90;82.20;;;;;;5000099;28;20486;-84
2022/04/15 11:08:53;;;;;;;10.50;9.60;;;20.30;82.60;;;;;;5000583;28;20459;-85
2022/04/15 11:11:45;;;;;;;8.87;8.13;;;20.40;81.80;;;;;;5001918;28;20502;-86
2022/04/15 11:14:22;;;;;;;10.63;9.63;;;20.90;83.30;;;;;;5000697;28;20456;-88
2022/04/15 11:17:30;;;;;;;9.53;8.77;;;21.00;77.80;;;;;;5002268;28;20479;-88
2022/04/15 11:20:05;;;;;;;9.07;8.20;;;21.60;79.20;;;;;;4990064;28;20539;-85
2022/04/15 11:22:33;;;;;;;11.47;10.27;;;22.10;79.10;;;;;;4999772;28;20465;-85
2022/04/15 11:25:00;;;;;;;11.00;10.20;;;21.60;76.30;;;;;;4999790;28;20453;-82
2022/04/15 11:27:27;;;;;;;11.57;10.43;;;20.40;77.60;;;;;;5000808;28;20831;-83
2022/04/15 11:29:57;;;;;;;10.70;9.73;;;20.00;80.10;;;;;;4999598;28;20940;-85
2022/04/15 11:32:24;;;;;;;11.97;10.77;;;20.10;81.20;;;;;;4992137;28;20482;-85
2022/04/15 11:34:55;;;;;;;12.00;10.83;;;20.20;82.70;;;;;;4978153;28;20482;-83
2022/04/15 11:37:24;;;;;;;9.83;8.83;;;20.70;81.70;;;;;;4985562;28;20522;-83
2022/04/15 11:39:51;;;;;;;9.77;8.97;;;20.40;78.90;;;;;;5000802;28;20710;-83
2022/04/15 11:42:17;;;;;;;8.40;7.60;;;19.80;78.00;;;;;;5009940;28;20484;-82
2022/04/15 11:44:44;;;;;;;10.43;7.93;;;19.50;78.50;;;;;;5014592;28;20453;-83
2022/04/15 11:47:19;;;;;;;7.37;6.73;;;19.40;77.10;;;;;;5007836;28;20457;-82
2022/04/15 11:49:47;;;;;;;6.20;5.60;;;19.90;76.80;;;;;;5007672;28;20473;-83
2022/04/15 11:52:21;;;;;;;7.27;6.70;;;19.80;72.90;;;;;;5006503;28;20558;-85
2022/04/15 11:54:49;;;;;;;10.33;8.80;;;19.60;75.60;;;;;;5007661;28;20462;-83
2022/04/15 11:57:16;;;;;;;8.87;7.47;;;19.10;76.00;;;;;;5007319;28;20492;-84
2022/04/15 11:59:44;;;;;;;10.10;9.20;;;19.40;79.00;;;;;;5006910;28;20446;-83
2022/04/15 12:02:12;;;;;;;11.57;10.50;;;20.00;79.60;;;;;;5006800;28;20467;-83
2022/04/15 12:04:49;;;;;;;9.73;8.90;;;20.30;79.90;;;;;;5007018;28;20454;-83
2022/04/15 12:07:17;;;;;;;10.03;9.03;;;21.00;77.00;;;;;;5006632;28;20461;-83
2022/04/15 12:09:45;;;;;;;9.87;8.97;;;21.40;76.00;;;;;;5007007;28;20528;-82
2022/04/15 12:12:15;;;;;;;10.97;9.87;;;21.40;73.70;;;;;;5005951;28;20543;-82
2022/04/15 12:14:42;;;;;;;10.90;9.90;;;21.50;73.60;;;;;;5007435;28;20448;-81
2022/04/15 12:17:11;;;;;;;9.90;9.00;;;21.50;73.30;;;;;;5007032;28;20490;-84
2022/04/15 12:19:39;;;;;;;9.57;8.70;;;21.40;72.90;;;;;;5006970;28;20826;-85
2022/04/15 12:22:06;;;;;;;8.87;7.97;;;20.70;72.40;;;;;;5005757;28;20495;-84
2022/04/15 12:24:32;;;;;;;7.93;7.00;;;21.20;72.50;;;;;;5006773;28;20449;-84
2022/04/15 12:27:01;;;;;;;7.37;6.70;;;22.00;70.70;;;;;;5007140;28;20455;-84
2022/04/15 12:32:19;;;;;;;7.20;6.60;;;22.50;61.80;;;;;;5005944;28;20462;-83
2022/04/15 12:34:47;;;;;;;6.87;6.27;;;22.10;63.50;;;;;;5005934;28;20487;-82
2022/04/15 12:37:37;;;;;;;5.57;4.97;;;21.70;64.70;;;;;;5006777;28;20562;-84
2022/04/15 12:40:07;;;;;;;6.57;5.97;;;21.50;61.30;;;;;;5006084;28;20456;-83
2022/04/15 12:42:36;;;;;;;8.60;7.80;;;21.30;64.10;;;;;;5005783;28;20490;-84
2022/04/15 12:45:07;;;;;;;10.53;9.20;;;21.40;66.40;;;;;;5005943;28;20460;-82
2022/04/15 12:47:34;;;;;;;8.67;7.90;;;21.60;67.50;;;;;;5006626;28;20453;-84
2022/04/15 12:50:22;;;;;;;10.00;9.20;;;22.20;68.20;;;;;;5006619;28;20449;-84
2022/04/15 12:52:49;;;;;;;8.30;7.60;;;22.60;67.20;;;;;;5005882;28;20542;-84
2022/04/15 12:55:25;;;;;;;8.97;8.20;;;22.50;64.10;;;;;;5006671;28;20451;-84
2022/04/15 12:57:52;;;;;;;7.13;6.53;;;21.30;62.90;;;;;;5005853;28;20479;-84
2022/04/15 13:00:21;;;;;;;7.10;6.40;;;20.50;64.80;;;;;;5005544;28;20446;-84
2022/04/15 13:02:47;;;;;;;6.80;6.10;;;20.70;66.60;;;;;;5005933;28;20479;-83
2022/04/15 13:05:15;;;;;;;6.97;6.37;;;21.00;65.00;;;;;;5005994;28;20455;-84
2022/04/15 13:07:42;;;;;;;5.90;5.50;;;21.60;66.30;;;;;;5005370;28;20451;-83
2022/04/15 13:10:12;;;;;;;7.73;6.73;;;22.20;65.50;;;;;;5005043;28;20460;-84
2022/04/15 13:12:38;;;;;;;8.10;7.40;;;22.60;67.20;;;;;;5004573;28;20833;-84
2022/04/15 13:15:06;;;;;;;7.00;6.40;;;23.20;65.70;;;;;;5005633;28;20534;-83
2022/04/15 13:17:34;;;;;;;6.33;5.83;;;23.70;62.90;;;;;;5005647;28;20491;-84
2022/04/15 13:20:02;;;;;;;7.00;6.50;;;23.90;63.50;;;;;;5005794;28;21144;-84
2022/04/15 13:22:29;;;;;;;8.07;6.60;;;22.90;60.50;;;;;;5004805;28;20475;-83
2022/04/15 13:24:56;;;;;;;7.23;6.70;;;22.40;63.60;;;;;;5004579;28;20477;-84
2022/04/15 13:27:23;;;;;;;7.67;7.07;;;22.70;62.80;;;;;;5005134;28;20453;-83
2022/04/15 13:29:51;;;;;;;7.67;7.07;;;22.00;62.80;;;;;;5005808;28;20943;-84
2022/04/15 13:32:19;;;;;;;7.80;7.00;;;22.40;63.20;;;;;;5003681;28;20533;-84
2022/04/15 13:34:47;;;;;;;7.13;6.40;;;23.10;62.30;;;;;;5004027;28;20455;-84
2022/04/15 13:37:13;;;;;;;6.30;5.90;;;23.70;59.40;;;;;;5004785;28;20478;-84
2022/04/15 13:39:41;;;;;;;5.53;5.10;;;23.80;58.10;;;;;;5004780;28;20971;-84
2022/04/15 13:42:10;;;;;;;5.90;5.30;;;23.60;58.70;;;;;;5004110;28;20483;-83
2022/04/15 13:44:37;;;;;;;7.10;6.50;;;23.10;58.50;;;;;;5004838;28;20450;-84
2022/04/15 13:47:04;;;;;;;7.93;7.17;;;22.30;58.30;;;;;;5004240;28;20466;-84
2022/04/15 13:49:31;;;;;;;6.40;5.90;;;21.70;59.30;;;;;;5004794;28;20492;-84
2022/04/15 13:52:00;;;;;;;5.93;5.43;;;21.70;58.90;;;;;;5003350;28;20481;-84
2022/04/15 13:57:11;;;;;;;8.50;7.90;;;20.30;62.00;;;;;;5003510;28;20470;-83
2022/04/15 13:59:38;;;;;;;6.93;6.23;;;20.30;64.80;;;;;;5004084;28;20844;-83
2022/04/15 14:02:07;;;;;;;7.20;6.57;;;20.50;64.90;;;;;;5002782;28;20467;-82
2022/04/15 14:04:34;;;;;;;8.27;7.50;;;20.70;65.70;;;;;;5004405;28;20455;-84
2022/04/15 14:07:02;;;;;;;8.20;7.40;;;20.70;66.20;;;;;;5004665;28;21203;-84
2022/04/15 14:09:28;;;;;;;7.80;7.10;;;20.60;65.00;;;;;;5003792;28;20461;-83
2022/04/15 14:11:55;;;;;;;6.43;5.93;;;20.60;64.70;;;;;;5003031;28;20453;-81
2022/04/15 14:14:22;;;;;;;7.60;6.63;;;20.40;64.00;;;;;;5003061;28;20461;-84
2022/04/15 14:16:48;;;;;;;6.03;5.33;;;20.90;64.90;;;;;;5003154;28;20461;-84
2022/04/15 14:19:15;;;;;;;6.20;5.77;;;21.40;63.80;;;;;;5003151;28;21047;-84
2022/04/15 14:21:42;;;;;;;9.47;8.67;;;21.80;61.20;;;;;;5003148;28;20454;-84
2022/04/15 14:24:10;;;;;;;6.77;6.13;;;21.20;59.90;;;;;;5002413;28;20464;-84
2022/04/15 14:26:37;;;;;;;6.57;6.03;;;21.80;63.10;;;;;;5003440;28;20457;-83
2022/04/15 14:29:05;;;;;;;10.27;9.47;;;22.10;63.40;;;;;;5003570;28;20950;-83
2022/04/15 14:31:31;;;;;;;7.23;6.73;;;22.30;62.30;;;;;;5003242;28;20452;-83
2022/04/15 14:33:58;;;;;;;7.57;6.87;;;22.10;63.00;;;;;;5004034;28;20475;-84
2022/04/15 14:36:26;;;;;;;8.03;7.33;;;22.10;63.70;;;;;;5003488;28;20462;-84
2022/04/15 14:38:53;;;;;;;7.70;7.00;;;22.50;63.30;;;;;;5003191;28;20497;-84
2022/04/15 14:41:22;;;;;;;9.30;8.50;;;22.70;61.30;;;;;;5003081;28;20454;-84
2022/04/15 14:43:49;;;;;;;6.83;6.23;;;23.10;60.30;;;;;;5002578;28;20488;-84
2022/04/15 14:46:16;;;;;;;7.77;7.10;;;23.70;61.60;;;;;;5002966;28;20466;-84
2022/04/15 14:48:46;;;;;;;5.87;5.47;;;24.10;58.20;;;;;;5002313;28;20447;-84
2022/04/15 14:51:14;;;;;;;7.10;5.87;;;23.90;57.80;;;;;;5002085;28;20509;-84
2022/04/15 14:53:41;;;;;;;8.63;7.83;;;23.70;57.90;;;;;;5002408;28;20519;-83
2022/04/15 14:56:08;;;;;;;7.97;7.27;;;22.80;57.90;;;;;;5003292;28;20462;-83
2022/04/15 14:58:36;;;;;;;7.67;6.93;;;21.70;58.30;;;;;;5002735;28;20491;-83
2022/04/15 15:01:03;;;;;;;7.37;6.80;;;21.70;59.90;;;;;;5001515;28;20474;-84
2022/04/15 15:03:30;;;;;;;6.87;6.00;;;22.20;59.70;;;;;;5001962;28;20472;-84
2022/04/15 15:05:57;;;;;;;6.20;5.70;;;23.10;59.20;;;;;;5002891;28;20489;-83
2022/04/15 15:08:24;;;;;;;5.07;4.77;;;24.00;56.70;;;;;;5002269;28;20476;-84
2022/04/15 15:10:51;;;;;;;5.63;5.20;;;24.30;54.90;;;;;;5002762;28;20451;-84
2022/04/15 15:13:18;;;;;;;6.00;5.60;;;23.80;52.70;;;;;;5002856;28;20463;-84
2022/04/15 15:15:46;;;;;;;6.13;5.63;;;24.40;54.20;;;;;;5002718;28;20903;-83
2022/04/15 15:18:12;;;;;;;6.07;5.53;;;25.00;53.70;;;;;;5003130;28;20488;-82
2022/04/15 15:20:39;;;;;;;5.30;4.80;;;25.20;52.60;;;;;;5001745;28;20476;-85
2022/04/15 15:23:06;;;;;;;6.20;5.33;;;25.70;52.80;;;;;;5002554;28;20479;-85
2022/04/15 15:31:10;;;;;;;5.67;5.30;;;24.30;50.50;;;;;;5002442;28;20956;-84
2022/04/15 15:33:36;;;;;;;4.90;4.50;;;23.50;52.20;;;;;;5002344;28;20478;-84
2022/04/15 15:36:03;;;;;;;5.77;5.37;;;23.00;50.20;;;;;;5004882;28;20444;-83
2022/04/15 15:38:30;;;;;;;4.93;4.53;;;22.30;52.10;;;;;;5005949;28;21037;-84
2022/04/15 15:40:56;;;;;;;5.13;4.83;;;22.10;53.70;;;;;;5005120;28;20453;-84
2022/04/15 15:43:24;;;;;;;5.20;4.70;;;22.50;53.60;;;;;;4971029;28;1028801;-83
2022/04/15 15:45:51;;;;;;;4.37;4.07;;;22.90;53.70;;;;;;5006793;28;20242;-84
2022/04/15 15:48:21;;;;;;;5.43;5.03;;;22.90;52.30;;;;;;5007396;28;20458;-82
2022/04/15 15:50:50;;;;;;;4.50;4.10;;;23.20;53.20;;;;;;5005993;28;20963;-84
2022/04/15 15:53:17;;;;;;;4.70;4.23;;;23.90;53.00;;;;;;5006853;28;20470;-84
2022/04/15 15:55:44;;;;;;;4.03;3.60;;;23.90;51.80;;;;;;5006683;28;20587;-84
2022/04/15 15:58:11;;;;;;;5.80;3.50;;;24.00;50.90;;;;;;5007179;28;20498;-84
2022/04/15 16:00:38;;;;;;;3.80;3.50;;;24.20;50.10;;;;;;5006219;28;20538;-84
2022/04/15 16:03:05;;;;;;;3.77;3.37;;;23.90;50.00;;;;;;5007196;28;20479;-85
2022/04/15 16:05:33;;;;;;;3.60;3.30;;;24.10;50.50;;;;;;5006591;28;20455;-84
2022/04/15 16:08:00;;;;;;;4.10;3.47;;;23.80;50.20;;;;;;5007037;28;20474;-84
2022/04/15 16:10:27;;;;;;;3.60;3.03;;;22.90;49.90;;;;;;5006303;28;20466;-84
2022/04/15 16:12:53;;;;;;;3.10;2.80;;;22.60;51.90;;;;;;5006568;28;20475;-84
2022/04/15 16:15:20;;;;;;;4.03;3.73;;;22.20;51.20;;;;;;5006598;28;20480;-83
2022/04/15 16:17:47;;;;;;;2.60;2.47;;;21.60;51.80;;;;;;5006204;28;20488;-84
2022/04/15 16:20:14;;;;;;;3.20;3.00;;;21.30;52.60;;;;;;5006370;28;20447;-84
2022/04/15 16:22:42;;;;;;;3.17;2.83;;;21.10;52.90;;;;;;5006827;28;20473;-83
2022/04/15 16:25:09;;;;;;;3.80;3.50;;;21.80;54.30;;;;;;5006577;28;20475;-82
2022/04/15 16:27:36;;;;;;;3.00;2.67;;;21.60;52.00;;;;;;5006109;28;20456;-84
2022/04/15 16:30:05;;;;;;;3.37;3.10;;;21.60;52.60;;;;;;5006077;28;20464;-83
2022/04/15 16:32:31;;;;;;;2.80;2.60;;;20.90;53.30;;;;;;5005978;28;20467;-84
2022/04/15 16:34:58;;;;;;;2.70;2.53;;;20.70;54.60;;;;;;5006866;28;20462;-84
2022/04/15 16:37:25;;;;;;;2.80;2.60;;;20.90;55.20;;;;;;5005391;28;20443;-84
2022/04/15 16:39:55;;;;;;;2.00;1.90;;;21.40;55.70;;;;;;5005497;28;20863;-84
2022/04/15 16:42:22;;;;;;;3.07;2.87;;;21.70;54.80;;;;;;5004396;28;20484;-83
2022/04/15 16:44:49;;;;;;;2.63;2.53;;;21.60;53.50;;;;;;5001195;28;20450;-83
2022/04/15 16:47:15;;;;;;;2.77;2.67;;;21.50;53.80;;;;;;5000004;28;20464;-83
2022/04/15 16:49:42;;;;;;;2.37;2.17;;;22.10;54.60;;;;;;5001160;28;20501;-83
2022/04/15 16:52:10;;;;;;;2.13;2.03;;;22.30;53.40;;;;;;5000800;28;20509;-82
2022/04/15 17:00:09;;;;;;;2.10;1.87;;;23.40;51.80;;;;;;5000000;28;20925;-83
2022/04/15 17:02:36;;;;;;;1.60;1.50;;;23.50;51.80;;;;;;4999298;28;21004;-83
2022/04/15 17:05:03;;;;;;;1.70;1.60;;;23.60;51.00;;;;;;4999284;28;20450;-83
2022/04/15 17:07:30;;;;;;;1.77;1.60;;;23.50;50.20;;;;;;5000048;28;20960;-81
2022/04/15 17:09:56;;;;;;;1.87;1.70;;;23.10;50.80;;;;;;5000064;28;20450;-81
2022/04/15 17:12:24;;;;;;;1.57;1.47;;;22.50;50.70;;;;;;4998713;28;20467;-82
2022/04/15 17:14:51;;;;;;;2.07;1.63;;;22.50;51.70;;;;;;4999459;28;20521;-83
2022/04/15 17:17:18;;;;;;;1.90;1.80;;;22.20;51.90;;;;;;4999287;28;20839;-82
2022/04/15 17:19:45;;;;;;;1.80;1.70;;;21.70;52.00;;;;;;4999210;28;20526;-82
2022/04/15 17:22:11;;;;;;;1.50;1.40;;;21.60;52.70;;;;;;4999038;28;20477;-81
2022/04/15 17:24:38;;;;;;;1.50;1.40;;;20.90;53.30;;;;;;5012037;28;20449;-80
2022/04/15 17:27:05;;;;;;;2.57;2.37;;;20.90;54.00;;;;;;5010326;28;20553;-81
2022/04/15 17:29:33;;;;;;;1.77;1.67;;;20.90;54.30;;;;;;5000075;28;20456;-81
2022/04/15 17:32:00;;;;;;;1.63;1.53;;;20.90;54.10;;;;;;4998703;28;20508;-82
2022/04/15 17:34:27;;;;;;;2.50;1.60;;;20.70;54.60;;;;;;4999114;28;20449;-81
2022/04/15 17:36:53;;;;;;;3.43;1.57;;;20.30;54.70;;;;;;4998684;28;20490;-81
2022/04/15 17:39:23;;;;;;;1.67;1.50;;;20.00;55.40;;;;;;4999065;28;20486;-81
2022/04/15 17:41:49;;;;;;;1.57;1.30;;;19.70;55.80;;;;;;4997841;28;20483;-82
2022/04/15 17:44:16;;;;;;;1.70;1.60;;;19.60;56.50;;;;;;4999059;28;20506;-81
2022/04/15 17:46:44;;;;;;;2.63;2.10;;;19.30;56.50;;;;;;4998742;28;20475;-82
2022/04/15 17:49:11;;;;;;;3.00;2.73;;;19.30;57.50;;;;;;4997964;28;20501;-81
2022/04/15 17:51:37;;;;;;;2.17;2.07;;;19.10;57.60;;;;;;4998498;28;20458;-81
2022/04/15 17:54:04;;;;;;;2.43;2.27;;;18.80;58.10;;;;;;4990228;28;20454;-81
2022/04/15 17:56:31;;;;;;;2.10;1.87;;;18.80;58.50;;;;;;4997837;28;20455;-81
2022/04/15 17:58:58;;;;;;;1.70;1.60;;;18.60;58.70;;;;;;4997358;28;20482;-83
2022/04/15 18:01:27;;;;;;;2.50;2.13;;;18.40;58.90;;;;;;4996923;28;20461;-79
2022/04/15 18:03:55;;;;;;;1.90;1.70;;;18.20;59.20;;;;;;4997399;28;20836;-81
2022/04/15 18:06:22;;;;;;;1.50;1.40;;;18.00;59.10;;;;;;4997892;28;20545;-81
2022/04/15 18:08:49;;;;;;;2.03;1.90;;;17.80;59.10;;;;;;4998033;28;20456;-80
2022/04/15 18:11:18;;;;;;;1.80;1.70;;;17.60;59.50;;;;;;4996793;28;20457;-83
2022/04/15 18:13:45;;;;;;;2.13;2.03;;;17.40;60.40;;;;;;4997392;28;20542;-81
2022/04/15 18:16:13;;;;;;;1.80;1.70;;;17.10;60.80;;;;;;4997578;28;20453;-80
2022/04/15 18:18:40;;;;;;;2.13;1.70;;;16.90;61.60;;;;;;4997142;28;20540;-81
2022/04/15 18:21:08;;;;;;;1.67;1.57;;;16.80;62.40;;;;;;4996962;28;20550;-80
2022/04/15 18:23:36;;;;;;;2.10;2.00;;;16.50;62.60;;;;;;4997049;28;20473;-80
2022/04/15 18:26:03;;;;;;;2.20;2.10;;;16.40;63.30;;;;;;4996913;28;20827;-81
2022/04/15 18:28:30;;;;;;;2.03;1.90;;;16.20;63.90;;;;;;4988201;28;21004;-80
2022/04/15 18:30:57;;;;;;;3.00;2.00;;;16.20;64.60;;;;;;4984457;28;20914;-83
2022/04/15 18:33:24;;;;;;;1.90;1.80;;;16.10;64.90;;;;;;4985683;28;20483;-80
2022/04/15 18:35:50;;;;;;;2.63;2.43;;;16.10;66.00;;;;;;4978508;28;20518;-81
2022/04/15 18:38:18;;;;;;;3.17;1.70;;;16.00;66.00;;;;;;4986570;28;20494;-81
2022/04/15 18:40:45;;;;;;;2.60;1.90;;;15.80;66.20;;;;;;4996882;28;20863;-83
2022/04/15 18:43:12;;;;;;;2.20;1.90;;;15.80;67.10;;;;;;4997512;28;20474;-81
2022/04/15 18:45:43;;;;;;;3.00;1.43;;;15.60;67.00;;;;;;4997438;28;20483;-81
2022/04/15 18:53:40;;;;;;;1.30;1.20;;;15.40;68.90;;;;;;4997114;28;20482;-80
2022/04/15 18:56:07;;;;;;;1.97;1.87;;;15.30;70.10;;;;;;4997366;28;20459;-80
2022/04/15 18:58:34;;;;;;;2.77;1.53;;;15.20;70.50;;;;;;4996692;28;20462;-81
2022/04/15 19:01:02;;;;;;;3.03;1.37;;;15.10;70.90;;;;;;4996299;28;20482;-81
2022/04/15 19:03:29;;;;;;;1.80;1.33;;;15.20;71.50;;;;;;4996921;28;20562;-80
2022/04/15 19:05:55;;;;;;;2.00;1.33;;;15.20;71.50;;;;;;4994589;28;20451;-81
2022/04/15 19:08:22;;;;;;;1.83;1.30;;;15.00;71.90;;;;;;4979584;28;20452;-80
2022/04/15 19:10:55;;;;;;;1.53;1.40;;;15.00;72.20;;;;;;4984015;28;20958;-81
2022/04/15 19:13:22;;;;;;;2.00;1.90;;;15.00;73.00;;;;;;5003889;28;20506;-81
2022/04/15 19:15:48;;;;;;;1.20;1.20;;;14.90;73.30;;;;;;5002486;28;20625;-82
2022/04/15 19:18:15;;;;;;;1.60;1.50;;;14.80;73.80;;;;;;4998094;28;20860;-81
2022/04/15 19:20:42;;;;;;;1.33;1.23;;;14.70;74.20;;;;;;4978068;28;20495;-82
2022/04/15 19:23:10;;;;;;;2.60;1.57;;;14.70;74.90;;;;;;4985937;28;20907;-82
2022/04/15 19:25:38;;;;;;;1.70;1.57;;;14.60;75.30;;;;;;4997995;28;20447;-82
2022/04/15 19:28:08;;;;;;;2.37;2.13;;;14.60;75.70;;;;;;4997895;28;20455;-82
2022/04/15 19:30:35;;;;;;;1.60;1.47;;;14.50;76.50;;;;;;4998130;28;20546;-81
2022/04/15 19:33:02;;;;;;;1.10;1.10;;;14.40;76.40;;;;;;4997552;28;20466;-82
2022/04/15 19:35:29;;;;;;;2.47;1.50;;;14.30;77.20;;;;;;4993150;28;20456;-82
2022/04/15 19:37:55;;;;;;;2.10;1.30;;;14.30;77.60;;;;;;4986483;28;20945;-82
2022/04/15 19:40:22;;;;;;;2.23;2.03;;;14.30;77.90;;;;;;4989611;28;20486;-82
2022/04/15 19:42:49;;;;;;;3.63;1.73;;;14.20;78.20;;;;;;4987548;28;21048;-81
2022/04/15 19:45:17;;;;;;;1.97;1.87;;;14.20;78.60;;;;;;4987233;28;20457;-82
2022/04/15 19:47:43;;;;;;;2.07;1.87;;;14.10;79.10;;;;;;4987410;28;20455;-82
2022/04/15 19:50:10;;;;;;;1.77;1.67;;;14.10;79.10;;;;;;4986478;28;20458;-81
2022/04/15 19:52:37;;;;;;;3.37;1.87;;;14.10;79.60;;;;;;4989545;28;20480;-82
2022/04/15 19:55:05;;;;;;;1.80;1.70;;;14.20;80.10;;;;;;4985358;28;20479;-80
2022/04/15 20:03:01;;;;;;;2.20;1.80;;;14.10;80.90;;;;;;4987618;28;20455;-83
2022/04/15 20:05:28;;;;;;;1.77;1.67;;;14.10;81.20;;;;;;4985340;28;20480;-84
2022/04/15 20:07:55;;;;;;;2.70;2.13;;;14.00;81.40;;;;;;4986721;28;20446;-82
2022/04/15 20:10:22;;;;;;;2.60;2.30;;;14.00;82.10;;;;;;4987220;28;20455;-83
2022/04/15 20:12:49;;;;;;;2.20;2.10;;;14.00;83.70;;;;;;4988205;28;20471;-83
2022/04/15 20:15:17;;;;;;;3.30;2.93;;;14.00;84.30;;;;;;4992966;28;20447;-80
2022/04/15 20:17:44;;;;;;;2.77;2.57;;;14.10;85.00;;;;;;4997067;28;20452;-82
2022/04/15 20:20:11;;;;;;;2.00;1.90;;;14.00;85.50;;;;;;4990351;28;20896;-83
2022/04/15 20:22:38;;;;;;;3.13;2.93;;;13.90;86.40;;;;;;4985650;28;20557;-83
2022/04/15 20:25:05;;;;;;;3.83;2.73;;;13.80;87.40;;;;;;4987313;28;20462;-83
2022/04/15 20:27:33;;;;;;;3.53;2.97;;;13.80;88.30;;;;;;4980660;28;20462;-84